createdAt,value
2018-11-11T00:00:53.599Z,37.83
2018-11-11T00:03:23.678Z,45.40
2018-11-11T00:05:53.709Z,47.08
2018-11-11T00:08:23.590Z,36.15
2018-11-11T00:10:53.730Z,41.15
2018-11-11T00:13:24.894Z,41.90
2018-11-11T00:15:54.121Z,41.27
2018-11-11T00:18:23.751Z,31.23
2018-11-11T00:20:53.771Z,41.33
2018-11-11T00:23:23.794Z,42.95
2018-11-11T00:25:53.658Z,42.53
2018-11-11T00:28:23.851Z,40.58
2018-11-11T00:30:53.959Z,40.25
2018-11-11T00:33:23.915Z,39.42
2018-11-11T00:35:53.935Z,44.20
2018-11-11T00:38:23.982Z,44.77
2018-11-11T00:40:54.057Z,52.90
2018-11-11T00:43:24.062Z,41.45
2018-11-11T00:45:55.041Z,39.45
2018-11-11T00:48:24.266Z,43.43
2018-11-11T00:50:54.122Z,39.85
2018-11-11T00:53:24.062Z,46.10
2018-11-11T00:55:54.203Z,50.98
2018-11-11T00:58:24.161Z,45.35
2018-11-11T01:00:54.091Z,64.17
2018-11-11T01:03:24.165Z,42.85
2018-11-11T01:05:54.281Z,47.98
2018-11-11T01:08:24.230Z,38.17
2018-11-11T01:10:54.226Z,43.75
2018-11-11T01:13:24.226Z,38.60
2018-11-11T01:15:54.322Z,49.18
2018-11-11T01:18:24.363Z,44.53
2018-11-11T01:20:54.415Z,41.67
2018-11-11T01:23:24.319Z,37.48
2018-11-11T01:25:54.373Z,44.35
2018-11-11T01:28:24.351Z,49.03
2018-11-11T01:30:54.673Z,39.33
2018-11-11T01:33:24.519Z,35.40
2018-11-11T01:35:54.602Z,37.25
2018-11-11T01:38:24.543Z,35.17
2018-11-11T01:40:54.888Z,27.22
2018-11-11T01:43:24.602Z,32.35
2018-11-11T01:45:54.629Z,35.15
2018-11-11T01:48:24.642Z,36.93
2018-11-11T01:50:54.710Z,34.43
2018-11-11T01:53:24.722Z,33.70
2018-11-11T01:55:54.722Z,37.75
2018-11-11T01:58:24.741Z,32.85
2018-11-11T02:00:54.821Z,33.40
2018-11-11T02:03:24.849Z,28.57
2018-11-11T02:05:54.889Z,33.63
2018-11-11T02:08:24.829Z,31.33
2018-11-11T02:10:54.783Z,30.32
2018-11-11T02:13:24.931Z,25.90
2018-11-11T02:15:54.977Z,31.17
2018-11-11T02:18:24.914Z,30.57
2018-11-11T02:20:55.051Z,34.03
2018-11-11T02:23:24.941Z,24.50
2018-11-11T02:25:55.043Z,27.70
2018-11-11T02:28:25.006Z,25.40
2018-11-11T02:30:55.114Z,29.87
2018-11-11T02:33:25.213Z,26.82
2018-11-11T02:35:55.054Z,29.90
2018-11-11T02:38:25.030Z,21.65
2018-11-11T02:40:55.134Z,32.98
2018-11-11T02:43:25.075Z,28.75
2018-11-11T02:45:55.218Z,31.15
2018-11-11T02:48:25.315Z,27.87
2018-11-11T02:50:55.193Z,34.73
2018-11-11T02:53:25.187Z,32.28
2018-11-11T02:55:55.255Z,31.33
2018-11-11T02:58:25.277Z,39.30
2018-11-11T03:00:55.345Z,34.95
2018-11-11T03:03:25.207Z,35.88
2018-11-11T03:05:55.284Z,37.30
2018-11-11T03:08:25.376Z,36.75
2018-11-11T03:10:55.479Z,38.25
2018-11-11T03:13:25.441Z,39.65
2018-11-11T03:15:54.662Z,45.70
2018-11-11T03:18:23.733Z,51.83
2018-11-11T03:20:52.915Z,35.03
2018-11-11T03:23:22.118Z,38.10
2018-11-11T03:25:51.459Z,33.45
2018-11-11T03:28:20.635Z,39.33
2018-11-11T03:30:49.819Z,36.03
2018-11-11T03:33:18.982Z,36.63
2018-11-11T03:35:48.159Z,31.90
2018-11-11T03:38:17.239Z,34.80
2018-11-11T03:40:46.389Z,34.70
2018-11-11T03:43:17.821Z,34.53
2018-11-11T03:45:46.959Z,36.67
2018-11-11T03:48:16.175Z,39.53
2018-11-11T03:50:45.399Z,34.73
2018-11-11T03:53:14.641Z,37.40
2018-11-11T03:55:43.855Z,27.60
2018-11-11T03:58:13.081Z,32.63
2018-11-11T04:00:42.208Z,32.48
2018-11-11T04:03:11.372Z,32.83
2018-11-11T04:05:40.442Z,37.70
2018-11-11T04:08:09.624Z,30.60
2018-11-11T04:10:38.872Z,34.30
2018-11-11T04:13:08.008Z,29.80
2018-11-11T04:15:37.245Z,30.32
2018-11-11T04:18:06.829Z,32.15
2018-11-11T04:20:36.063Z,33.23
2018-11-11T04:23:05.278Z,34.67
2018-11-11T04:25:34.457Z,32.57
2018-11-11T04:28:03.720Z,37.35
2018-11-11T04:30:33.651Z,34.83
2018-11-11T04:33:02.770Z,36.95
2018-11-11T04:35:31.970Z,37.23
2018-11-11T04:38:01.154Z,41.42
2018-11-11T04:40:30.374Z,43.30
2018-11-11T04:42:59.567Z,40.20
2018-11-11T04:45:28.797Z,32.80
2018-11-11T04:47:57.989Z,31.30
2018-11-11T04:50:28.236Z,34.80
2018-11-11T04:52:57.417Z,35.67
2018-11-11T04:55:28.666Z,34.43
2018-11-11T04:57:57.825Z,33.70
2018-11-11T05:00:27.055Z,39.37
2018-11-11T05:02:56.556Z,34.10
2018-11-11T05:05:26.500Z,33.58
2018-11-11T05:07:56.468Z,34.83
2018-11-11T05:10:26.522Z,26.10
2018-11-11T05:12:56.679Z,29.87
2018-11-11T05:15:26.611Z,31.85
2018-11-11T05:17:56.702Z,28.75
2018-11-11T05:20:26.722Z,32.25
2018-11-11T05:22:56.610Z,29.50
2018-11-11T05:25:26.664Z,31.65
2018-11-11T05:27:59.288Z,28.83
2018-11-11T05:30:28.538Z,32.93
2018-11-11T05:32:57.769Z,25.23
2018-11-11T05:35:26.934Z,33.33
2018-11-11T05:37:56.782Z,29.02
2018-11-11T05:40:26.874Z,32.67
2018-11-11T05:42:56.871Z,33.80
2018-11-11T05:45:26.907Z,36.42
2018-11-11T05:47:56.899Z,33.38
2018-11-11T05:50:26.874Z,32.85
2018-11-11T05:52:56.995Z,28.35
2018-11-11T05:55:26.945Z,30.70
2018-11-11T05:57:56.934Z,38.55
2018-11-11T06:00:27.054Z,35.52
2018-11-11T06:02:57.033Z,40.40
2018-11-11T06:05:28.059Z,31.02
2018-11-11T06:07:57.218Z,27.73
2018-11-11T06:10:27.084Z,29.63
2018-11-11T06:12:57.068Z,35.30
2018-11-11T06:15:28.216Z,28.80
2018-11-11T06:17:57.436Z,26.23
2018-11-11T06:20:28.273Z,37.50
2018-11-11T06:22:57.345Z,34.53
2018-11-11T06:25:28.390Z,25.62
2018-11-11T06:27:57.590Z,22.73
2018-11-11T06:30:28.392Z,22.20
2018-11-11T06:32:57.562Z,22.40
2018-11-11T06:35:30.321Z,25.35
2018-11-11T06:37:59.455Z,24.20
2018-11-11T06:40:28.647Z,27.27
2018-11-11T06:42:57.855Z,33.93
2018-11-11T06:45:28.554Z,21.07
2018-11-11T06:47:57.736Z,24.37
2018-11-11T06:50:28.589Z,24.27
2018-11-11T06:52:57.762Z,25.65
2018-11-11T06:55:28.403Z,24.20
2018-11-11T06:57:57.647Z,16.73
2018-11-11T07:00:28.616Z,20.60
2018-11-11T07:03:14.766Z,19.10
2018-11-11T07:05:44.018Z,16.13
2018-11-11T07:08:13.039Z,14.33
2018-11-11T07:10:42.252Z,14.97
2018-11-11T07:13:11.449Z,16.93
2018-11-11T07:15:40.752Z,13.70
2018-11-11T07:18:09.870Z,17.03
2018-11-11T07:20:38.962Z,14.47
2018-11-11T07:23:08.144Z,16.63
2018-11-11T07:25:37.366Z,18.60
2018-11-11T07:28:06.754Z,17.70
2018-11-11T07:30:36.006Z,19.90
2018-11-11T07:33:05.337Z,13.90
2018-11-11T07:35:34.544Z,19.83
2018-11-11T07:38:03.754Z,21.23
2018-11-11T07:40:32.990Z,19.27
2018-11-11T07:43:02.278Z,27.93
2018-11-11T07:45:31.460Z,20.80
2018-11-11T07:48:00.655Z,17.70
2018-11-11T07:50:29.819Z,17.93
2018-11-11T07:52:59.153Z,16.20
2018-11-11T07:55:29.222Z,17.42
2018-11-11T07:57:58.506Z,15.77
2018-11-11T08:00:27.723Z,21.13
2018-11-11T08:02:57.971Z,20.67
2018-11-11T08:05:27.581Z,15.90
2018-11-11T08:07:56.754Z,15.50
2018-11-11T08:10:43.126Z,16.67
2018-11-11T08:13:12.202Z,17.98
2018-11-11T08:15:41.318Z,16.43
2018-11-11T08:18:10.507Z,16.32
2018-11-11T08:20:39.750Z,16.73
2018-11-11T08:23:09.001Z,16.07
2018-11-11T08:25:38.157Z,13.80
2018-11-11T08:28:07.249Z,18.20
2018-11-11T08:30:36.471Z,13.35
2018-11-11T08:33:05.607Z,13.13
2018-11-11T08:35:34.740Z,10.03
2018-11-11T08:38:04.414Z,15.58
2018-11-11T08:40:33.586Z,16.67
2018-11-11T08:43:02.612Z,13.72
2018-11-11T08:45:33.244Z,11.93
2018-11-11T08:48:02.428Z,13.60
2018-11-11T08:50:31.586Z,14.17
2018-11-11T08:53:00.732Z,15.70
2018-11-11T08:55:29.930Z,17.97
2018-11-11T08:57:59.147Z,102.23
2018-11-11T09:00:28.728Z,16.67
2018-11-11T09:02:58.789Z,11.50
2018-11-11T09:05:28.704Z,23.32
2018-11-11T09:07:58.730Z,13.30
2018-11-11T09:10:28.775Z,15.93
2018-11-11T09:12:58.721Z,12.03
2018-11-11T09:15:28.864Z,14.20
2018-11-11T09:17:58.830Z,12.63
2018-11-11T09:20:28.821Z,16.27
2018-11-11T09:22:58.942Z,13.38
2018-11-11T09:25:28.976Z,19.73
2018-11-11T09:27:58.960Z,15.88
2018-11-11T09:30:28.994Z,15.45
2018-11-11T09:32:59.243Z,13.10
2018-11-11T09:35:29.422Z,10.93
2018-11-11T09:37:59.439Z,25.65
2018-11-11T09:40:29.498Z,40.45
2018-11-11T09:42:59.499Z,19.35
2018-11-11T09:45:29.518Z,14.55
2018-11-11T09:47:59.545Z,15.63
2018-11-11T09:50:29.574Z,15.85
2018-11-11T09:52:59.657Z,15.70
2018-11-11T09:55:29.492Z,16.47
2018-11-11T09:57:59.691Z,13.30
2018-11-11T10:00:29.629Z,15.00
2018-11-11T10:03:02.634Z,16.95
2018-11-11T10:05:40.938Z,16.23
2018-11-11T10:08:29.371Z,16.90
2018-11-11T10:11:04.622Z,13.77
2018-11-11T10:13:41.186Z,19.50
2018-11-11T10:16:15.499Z,13.90
2018-11-11T10:18:51.990Z,13.70
2018-11-11T10:21:28.693Z,13.73
2018-11-11T10:25:05.580Z,12.70
2018-11-11T10:28:38.626Z,14.18
2018-11-11T10:31:18.986Z,28.12
2018-11-11T10:34:22.714Z,17.87
2018-11-11T10:36:56.723Z,14.83
2018-11-11T10:39:30.895Z,15.00
2018-11-11T10:42:04.590Z,16.00
2018-11-11T10:44:41.277Z,16.00
2018-11-11T10:47:15.126Z,17.10
2018-11-11T10:49:48.540Z,21.77
2018-11-11T10:52:17.748Z,19.93
2018-11-11T10:54:46.977Z,16.03
2018-11-11T10:57:16.206Z,16.37
2018-11-11T10:59:45.546Z,21.27
2018-11-11T11:02:18.262Z,18.33
2018-11-11T11:04:53.031Z,20.00
2018-11-11T11:07:22.131Z,18.90
2018-11-11T11:09:51.291Z,19.20
2018-11-11T11:12:20.386Z,17.13
2018-11-11T11:14:50.765Z,18.17
2018-11-11T11:17:19.915Z,16.70
2018-11-11T11:19:49.108Z,15.63
2018-11-11T11:22:18.301Z,13.73
2018-11-11T11:24:47.610Z,11.85
2018-11-11T11:27:16.763Z,16.42
2018-11-11T11:29:45.915Z,14.40
2018-11-11T11:32:15.142Z,10.83
2018-11-11T11:34:44.176Z,11.67
2018-11-11T11:37:15.195Z,15.70
2018-11-11T11:39:44.396Z,11.30
2018-11-11T11:42:13.616Z,14.30
2018-11-11T11:44:42.827Z,11.90
2018-11-11T11:47:12.009Z,10.93
2018-11-11T11:49:41.153Z,14.03
2018-11-11T11:52:10.312Z,15.57
2018-11-11T11:54:39.479Z,10.07
2018-11-11T11:57:08.690Z,10.10
2018-11-11T11:59:37.854Z,9.90
2018-11-11T12:02:07.124Z,11.30
2018-11-11T12:04:36.276Z,14.90
2018-11-11T12:07:05.506Z,11.60
2018-11-11T12:09:34.696Z,11.47
2018-11-11T12:12:03.834Z,12.27
2018-11-11T12:14:33.011Z,12.00
2018-11-11T12:17:02.265Z,11.97
2018-11-11T12:19:33.288Z,9.97
2018-11-11T12:22:02.580Z,14.70
2018-11-11T12:24:31.906Z,13.20
2018-11-11T12:27:01.522Z,9.65
2018-11-11T12:29:31.410Z,13.20
2018-11-11T12:32:01.394Z,10.23
2018-11-11T12:34:31.522Z,13.85
2018-11-11T12:41:58.755Z,6.70
2018-11-11T12:44:27.984Z,13.50
2018-11-11T12:46:57.160Z,12.23
2018-11-11T12:49:27.363Z,10.97
2018-11-11T12:51:56.486Z,12.20
2018-11-11T12:54:25.669Z,12.43
2018-11-11T12:56:54.848Z,10.18
2018-11-11T12:59:24.092Z,9.97
2018-11-11T13:01:53.408Z,12.07
2018-11-11T13:04:22.558Z,12.87
2018-11-11T13:06:51.782Z,11.07
2018-11-11T13:09:20.869Z,9.97
2018-11-11T13:11:50.089Z,10.67
2018-11-11T13:14:19.226Z,8.90
2018-11-11T13:16:48.400Z,13.22
2018-11-11T13:19:17.605Z,12.37
2018-11-11T13:21:46.692Z,25.43
2018-11-11T13:24:15.819Z,16.57
2018-11-11T13:26:45.026Z,9.30
2018-11-11T13:29:14.210Z,8.40
2018-11-11T13:31:43.571Z,8.00
2018-11-11T13:34:12.682Z,7.97
2018-11-11T13:36:41.833Z,8.55
2018-11-11T13:39:13.752Z,7.45
2018-11-11T13:41:43.715Z,6.57
2018-11-11T13:44:12.966Z,8.10
2018-11-11T13:46:42.340Z,7.07
2018-11-11T13:49:11.403Z,9.80
2018-11-11T13:51:40.648Z,11.60
2018-11-11T13:54:09.710Z,13.23
2018-11-11T13:56:39.125Z,7.60
2018-11-11T13:59:08.262Z,10.90
2018-11-11T14:01:37.533Z,9.48
2018-11-11T14:04:06.634Z,11.20
2018-11-11T14:06:35.821Z,8.03
2018-11-11T14:09:09.078Z,9.17
2018-11-11T14:11:38.414Z,8.80
2018-11-11T14:14:08.133Z,8.50
2018-11-11T14:16:37.527Z,10.00
2018-11-11T14:19:07.690Z,8.90
2018-11-11T14:21:36.385Z,13.03
2018-11-11T14:24:05.578Z,10.20
2018-11-11T14:26:34.892Z,11.00
2018-11-11T14:29:03.860Z,8.37
2018-11-11T14:31:33.128Z,10.10
2018-11-11T14:34:03.178Z,7.85
2018-11-11T14:36:33.261Z,9.16
2018-11-11T14:39:03.214Z,11.87
2018-11-11T14:41:33.204Z,15.45
2018-11-11T14:44:03.371Z,10.10
2018-11-11T14:46:33.150Z,8.38
2018-11-11T14:49:03.483Z,7.23
2018-11-11T14:51:33.454Z,6.00
2018-11-11T14:54:03.443Z,6.40
2018-11-11T14:56:33.404Z,7.67
2018-11-11T14:59:03.458Z,5.55
2018-11-11T15:01:33.579Z,7.58
2018-11-11T15:04:03.493Z,7.15
2018-11-11T15:06:33.617Z,6.98
2018-11-11T15:09:04.582Z,6.05
2018-11-11T15:11:33.719Z,6.33
2018-11-11T15:14:03.606Z,8.77
2018-11-11T15:16:33.606Z,8.74
2018-11-11T15:19:03.979Z,88.40
2018-11-11T15:21:33.890Z,19.18
2018-11-11T15:24:03.879Z,19.95
2018-11-11T15:26:33.832Z,8.72
2018-11-11T15:29:04.825Z,7.37
2018-11-11T15:31:34.035Z,12.10
2018-11-11T15:34:03.833Z,7.72
2018-11-11T15:36:33.919Z,10.08
2018-11-11T15:39:05.374Z,11.97
2018-11-11T15:41:34.634Z,16.93
2018-11-11T15:44:04.048Z,12.73
2018-11-11T15:46:34.031Z,12.66
2018-11-11T15:49:04.246Z,10.70
2018-11-11T15:51:38.282Z,11.71
2018-11-11T15:54:07.390Z,18.33
2018-11-11T15:56:36.442Z,13.43
2018-11-11T15:59:05.662Z,11.17
2018-11-11T16:01:34.806Z,10.63
2018-11-11T16:04:04.257Z,10.60
2018-11-11T16:06:34.330Z,10.03
2018-11-11T16:09:05.306Z,9.85
2018-11-11T16:11:34.452Z,13.65
2018-11-11T16:14:04.343Z,19.25
2018-11-11T16:16:34.330Z,18.42
2018-11-11T16:19:04.387Z,18.02
2018-11-11T16:21:34.382Z,13.08
2018-11-11T16:24:04.608Z,13.47
2018-11-11T16:26:34.906Z,15.03
2018-11-11T16:29:04.933Z,23.18
2018-11-11T16:31:34.975Z,13.00
2018-11-11T16:34:06.503Z,15.70
2018-11-11T16:36:35.825Z,12.63
2018-11-11T16:39:07.598Z,14.60
2018-11-11T16:41:36.772Z,15.53
2018-11-11T16:44:06.078Z,14.80
2018-11-11T16:46:35.320Z,19.10
2018-11-11T16:49:05.439Z,37.93
2018-11-11T16:51:35.394Z,23.23
2018-11-11T16:54:05.848Z,20.37
2018-11-11T16:56:35.512Z,20.23
2018-11-11T16:59:05.750Z,23.10
2018-11-11T17:01:35.470Z,19.42
2018-11-11T17:04:05.638Z,30.52
2018-11-11T17:06:35.482Z,24.78
2018-11-11T17:09:11.139Z,25.60
2018-11-11T17:11:40.470Z,29.80
2018-11-11T17:14:09.821Z,35.13
2018-11-11T17:16:38.991Z,34.43
2018-11-11T17:19:08.215Z,80.23
2018-11-11T17:21:37.463Z,65.00
2018-11-11T17:24:07.030Z,32.05
2018-11-11T17:26:37.227Z,35.80
2018-11-11T17:29:06.423Z,32.93
2018-11-11T17:31:35.841Z,21.48
2018-11-11T17:34:06.292Z,28.65
2018-11-11T17:36:35.856Z,28.55
2018-11-11T17:39:10.008Z,29.67
2018-11-11T17:41:39.587Z,25.32
2018-11-11T17:44:08.658Z,34.03
2018-11-11T17:46:37.805Z,28.90
2018-11-11T17:49:08.243Z,29.07
2018-11-11T17:51:37.518Z,29.63
2018-11-11T17:54:06.855Z,27.53
2018-11-11T17:56:36.295Z,28.05
2018-11-11T17:59:06.749Z,32.20
2018-11-11T18:01:36.239Z,33.10
2018-11-11T18:04:07.582Z,27.05
2018-11-11T18:06:36.873Z,33.20
2018-11-11T18:09:09.459Z,36.05
2018-11-11T18:11:39.107Z,36.00
2018-11-11T18:14:08.582Z,33.08
2018-11-11T18:16:37.726Z,40.53
2018-11-11T18:19:06.867Z,27.80
2018-11-11T18:21:36.462Z,30.64
2018-11-11T18:24:06.857Z,28.12
2018-11-11T18:26:37.826Z,34.40
2018-11-11T18:29:07.058Z,26.97
2018-11-11T18:31:36.245Z,25.70
2018-11-11T18:34:06.706Z,29.33
2018-11-11T18:36:36.752Z,25.22
2018-11-11T18:39:10.243Z,25.27
2018-11-11T18:41:39.365Z,27.87
2018-11-11T18:44:08.514Z,31.10
2018-11-11T18:46:38.172Z,32.27
2018-11-11T18:49:07.262Z,37.40
2018-11-11T18:51:37.043Z,35.98
2018-11-11T18:54:07.139Z,32.83
2018-11-11T18:56:37.178Z,36.92
2018-11-11T18:59:07.073Z,33.00
2018-11-11T19:01:37.144Z,36.18
2018-11-11T19:04:07.426Z,33.40
2018-11-11T19:06:37.381Z,39.33
2018-11-11T19:09:11.603Z,36.77
2018-11-11T19:11:40.944Z,39.63
2018-11-11T19:14:10.143Z,40.00
2018-11-11T19:16:39.565Z,36.90
2018-11-11T19:19:08.786Z,37.10
2018-11-11T19:21:38.110Z,43.95
2018-11-11T19:24:07.523Z,44.33
2018-11-11T19:26:37.538Z,55.08
2018-11-11T19:29:07.561Z,57.38
2018-11-11T19:31:37.656Z,41.90
2018-11-11T19:34:07.658Z,44.60
2018-11-11T19:36:38.748Z,49.22
2018-11-11T19:39:11.111Z,49.93
2018-11-11T19:41:41.088Z,52.45
2018-11-11T19:44:10.574Z,44.47
2018-11-11T19:46:39.809Z,47.75
2018-11-11T19:49:08.990Z,52.40
2018-11-11T19:51:38.259Z,58.55
2018-11-11T19:54:08.004Z,53.65
2018-11-11T19:56:38.079Z,45.96
2018-11-11T19:59:08.167Z,47.67
2018-11-11T20:01:37.431Z,60.30
2018-11-11T20:04:07.418Z,51.93
2018-11-11T20:06:36.650Z,44.27
2018-11-11T20:09:10.379Z,47.60
2018-11-11T20:11:39.519Z,50.60
2018-11-11T20:14:08.882Z,48.47
2018-11-11T20:16:38.813Z,44.42
2018-11-11T20:19:08.399Z,52.78
2018-11-11T20:21:38.542Z,45.78
2018-11-11T20:24:08.474Z,57.20
2018-11-11T20:26:37.585Z,48.40
2018-11-11T20:29:06.999Z,47.10
2018-11-11T20:31:36.297Z,49.77
2018-11-11T20:34:05.740Z,49.53
2018-11-11T20:36:34.866Z,48.58
2018-11-11T20:39:04.953Z,61.50
2018-11-11T20:41:34.127Z,51.10
2018-11-11T20:44:03.216Z,55.50
2018-11-11T20:46:32.400Z,64.22
2018-11-11T20:49:01.470Z,73.20
2018-11-11T20:51:30.638Z,54.53
2018-11-11T20:53:59.752Z,50.20
2018-11-11T20:56:28.975Z,50.00
2018-11-11T20:58:58.084Z,57.50
2018-11-11T21:01:27.338Z,49.40
2018-11-11T21:03:56.478Z,54.40
2018-11-11T21:06:25.653Z,55.67
2018-11-11T21:08:54.886Z,53.38
2018-11-11T21:11:24.002Z,54.20
2018-11-11T21:13:53.203Z,59.75
2018-11-11T21:16:22.327Z,51.23
2018-11-11T21:18:51.494Z,48.07
2018-11-11T21:21:20.720Z,50.33
2018-11-11T21:23:49.881Z,53.80
2018-11-11T21:26:19.073Z,54.90
2018-11-11T21:28:48.233Z,43.13
2018-11-11T21:31:17.406Z,48.80
2018-11-11T21:33:46.616Z,48.23
2018-11-11T21:36:15.803Z,38.93
2018-11-11T21:38:44.926Z,43.60
2018-11-11T21:41:14.054Z,48.03
2018-11-11T21:43:43.187Z,39.20
2018-11-11T21:46:12.314Z,42.63
2018-11-11T21:48:41.540Z,39.37
2018-11-11T21:51:10.709Z,38.87
2018-11-11T21:54:04.866Z,43.95
2018-11-11T21:56:34.066Z,39.67
2018-11-11T21:59:03.267Z,50.53
2018-11-11T22:01:32.482Z,54.98
2018-11-11T22:04:01.699Z,62.57
2018-11-11T22:06:30.875Z,55.08
2018-11-11T22:09:00.149Z,61.93
2018-11-11T22:11:29.273Z,51.17
2018-11-11T22:13:58.573Z,56.70
2018-11-11T22:16:27.805Z,50.97
2018-11-11T22:18:57.014Z,45.73
2018-11-11T22:21:27.718Z,63.03
2018-11-11T22:23:56.936Z,58.30
2018-11-11T22:26:26.130Z,55.17
2018-11-11T22:28:55.363Z,50.67
2018-11-11T22:31:24.483Z,55.13
2018-11-11T22:33:53.556Z,52.33
2018-11-11T22:36:22.805Z,61.10
2018-11-11T22:38:51.978Z,55.05
2018-11-11T22:41:21.274Z,57.43
2018-11-11T22:43:50.375Z,62.80
2018-11-11T22:46:19.683Z,58.17
2018-11-11T22:48:48.810Z,59.00
2018-11-11T22:51:18.003Z,48.97
2018-11-11T22:53:47.232Z,50.73
2018-11-11T22:56:16.487Z,52.60
2018-11-11T22:58:45.720Z,45.47
2018-11-11T23:01:21.867Z,53.60
2018-11-11T23:03:51.366Z,61.73
2018-11-11T23:06:20.558Z,58.50
2018-11-11T23:08:49.683Z,52.50
2018-11-11T23:11:18.896Z,61.63
2018-11-11T23:13:48.029Z,52.67
2018-11-11T23:16:17.154Z,49.77
2018-11-11T23:18:46.290Z,49.00
2018-11-11T23:21:15.481Z,46.60
2018-11-11T23:23:44.652Z,44.00
2018-11-11T23:26:13.842Z,44.20
2018-11-11T23:28:43.062Z,43.38
2018-11-11T23:31:12.271Z,40.77
2018-11-11T23:33:41.522Z,45.17
2018-11-11T23:36:10.903Z,43.10
2018-11-11T23:38:40.986Z,47.92
2018-11-11T23:41:10.968Z,44.03
2018-11-11T23:43:40.991Z,43.58
2018-11-11T23:46:11.039Z,42.08
2018-11-11T23:48:41.114Z,50.84
2018-11-11T23:51:11.052Z,48.20
2018-11-11T23:53:41.098Z,47.94
2018-11-11T23:56:11.174Z,47.27
2018-11-11T23:58:41.855Z,40.88
